Time;durP1;ratioP1;P1;durP2;ratioP2;P2;SDS_P1;SDS_P2;PMS_P1;PMS_P2;Temp;Humidity;BMP_temperature;BMP_pressure;BME280_temperature;BME280_humidity;BME280_pressure;Samples;Min_cycle;Max_cycle;Signal;HPM_P1;HPM_P2
2022/06/24 00:00:36;;;;;;;23.33;21.02;;;;;;;;;;5032133;27;95023;-78
2022/06/24 00:03:03;;;;;;;26.27;20.23;;;;;;;;;;5036437;27;92891;-77
2022/06/24 00:05:29;;;;;;;27.50;20.35;;;;;;;;;;5038020;27;92998;-73
2022/06/24 00:07:56;;;;;;;34.17;22.52;;;;;;;;;;5033354;27;94288;-74
2022/06/24 00:10:31;;;;;;;30.35;24.10;;;;;;;;;;5040604;27;92540;-76
2022/06/24 00:12:57;;;;;;;27.20;21.23;;;;;;;;;;5046385;27;94189;-76
2022/06/24 00:15:31;;;;;;;29.60;22.58;;;;;;;;;;5041341;27;93428;-75
2022/06/24 00:17:58;;;;;;;21.65;18.23;;;;;;;;;;5044596;27;91772;-75
2022/06/24 00:20:24;;;;;;;33.95;22.23;;;;;;;;;;5045629;27;92657;-76
2022/06/24 00:22:52;;;;;;;26.70;18.58;;;;;;;;;;5036967;27;94991;-76
2022/06/24 00:25:20;;;;;;;25.38;18.67;;;;;;;;;;5035321;27;94903;-75
2022/06/24 00:28:05;;;;;;;24.13;17.20;;;;;;;;;;5040994;27;93211;-84
2022/06/24 00:30:42;;;;;;;36.83;22.38;;;;;;;;;;5036636;27;93680;-82
2022/06/24 00:33:19;;;;;;;20.50;14.85;;;;;;;;;;5051401;27;93423;-83
2022/06/24 00:35:47;;;;;;;15.90;12.15;;;;;;;;;;5032447;27;94468;-79
2022/06/24 00:38:33;;;;;;;19.52;13.68;;;;;;;;;;5042424;27;92532;-78
2022/06/24 00:41:03;;;;;;;16.92;13.07;;;;;;;;;;5042372;27;94715;-77
2022/06/24 00:43:32;;;;;;;21.50;12.70;;;;;;;;;;5054122;27;93269;-79
2022/06/24 00:46:19;;;;;;;17.88;12.80;;;;;;;;;;5043196;27;93651;-79
2022/06/24 00:48:47;;;;;;;21.77;14.68;;;;;;;;;;5024484;27;94328;-78
2022/06/24 00:51:13;;;;;;;17.85;14.65;;;;;;;;;;5033402;27;95301;-77
2022/06/24 00:53:41;;;;;;;16.90;13.60;;;;;;;;;;5048871;27;96131;-77
2022/06/24 00:56:09;;;;;;;21.70;14.18;;;;;;;;;;5032374;27;93445;-77
2022/06/24 00:58:37;;;;;;;16.88;13.95;;;;;;;;;;5037265;27;92482;-78
2022/06/24 01:01:03;;;;;;;26.60;16.95;;;;;;;;;;5042290;27;93069;-75
2022/06/24 01:03:42;;;;;;;20.25;15.57;;;;;;;;;;5034373;27;93334;-78
2022/06/24 01:06:09;;;;;;;26.20;17.95;;;;;;;;;;5033295;27;92421;-77
2022/06/24 01:08:35;;;;;;;38.20;20.27;;;;;;;;;;5042089;27;94002;-77
2022/06/24 01:11:07;;;;;;;26.08;18.02;;;;;;;;;;5036305;27;94347;-75
2022/06/24 01:13:33;;;;;;;18.85;16.40;;;;;;;;;;5045197;27;94085;-75
2022/06/24 01:15:59;;;;;;;20.83;17.02;;;;;;;;;;5037110;27;96632;-76
2022/06/24 01:18:26;;;;;;;22.10;17.48;;;;;;;;;;5032326;27;92423;-76
2022/06/24 01:20:53;;;;;;;38.10;20.75;;;;;;;;;;5032478;27;92948;-76
2022/06/24 01:23:23;;;;;;;61.75;30.35;;;;;;;;;;5050311;27;94086;-79
2022/06/24 01:25:50;;;;;;;81.15;46.65;;;;;;;;;;5039677;27;92944;-80
2022/06/24 01:28:16;;;;;;;86.03;52.67;;;;;;;;;;5033189;27;93286;-79
2022/06/24 01:30:42;;;;;;;73.20;49.30;;;;;;;;;;5032087;27;93772;-79
2022/06/24 01:33:09;;;;;;;66.63;45.00;;;;;;;;;;5036039;27;91710;-77
2022/06/24 01:35:35;;;;;;;96.25;58.47;;;;;;;;;;5034375;27;93135;-82
2022/06/24 01:38:01;;;;;;;82.90;54.42;;;;;;;;;;5038016;27;92515;-77
2022/06/24 01:40:28;;;;;;;73.90;49.85;;;;;;;;;;5030255;27;96241;-77
2022/06/24 01:42:54;;;;;;;76.45;47.53;;;;;;;;;;5039655;27;93718;-75
2022/06/24 01:45:21;;;;;;;71.07;50.17;;;;;;;;;;5046014;27;92996;-76
2022/06/24 01:47:47;;;;;;;58.85;42.05;;;;;;;;;;5044747;27;93994;-77
2022/06/24 01:50:13;;;;;;;24.67;21.08;;;;;;;;;;5042490;27;94111;-76
2022/06/24 01:52:40;;;;;;;17.65;14.65;;;;;;;;;;5050572;27;94030;-77
2022/06/24 01:55:06;;;;;;;11.93;10.68;;;;;;;;;;5039893;27;92956;-77
2022/06/24 01:57:32;;;;;;;10.27;7.30;;;;;;;;;;5041181;27;92065;-76
2022/06/24 02:00:00;;;;;;;6.95;5.72;;;;;;;;;;5039464;27;92567;-75
2022/06/24 02:02:26;;;;;;;6.35;4.95;;;;;;;;;;5034479;27;93444;-77
2022/06/24 02:04:54;;;;;;;4.93;3.40;;;;;;;;;;5041640;27;94903;-78
2022/06/24 02:07:21;;;;;;;4.90;3.47;;;;;;;;;;5053135;27;96581;-77
2022/06/24 02:15:18;;;;;;;6.57;3.30;;;;;;;;;;5033197;27;93958;-76
2022/06/24 02:17:44;;;;;;;4.75;3.00;;;;;;;;;;5036588;27;94418;-75
2022/06/24 02:20:11;;;;;;;2.70;2.50;;;;;;;;;;5045424;27;93861;-75
2022/06/24 02:22:37;;;;;;;3.40;2.60;;;;;;;;;;5044455;27;92958;-78
2022/06/24 02:25:03;;;;;;;3.25;2.63;;;;;;;;;;5035216;27;92511;-75
2022/06/24 02:27:30;;;;;;;4.90;2.78;;;;;;;;;;5039067;27;93218;-75
2022/06/24 02:29:56;;;;;;;7.03;2.60;;;;;;;;;;5031300;27;96430;-76
2022/06/24 02:32:22;;;;;;;2.72;2.45;;;;;;;;;;5037327;27;92584;-74
2022/06/24 02:34:49;;;;;;;3.72;2.40;;;;;;;;;;5050487;27;94006;-76
2022/06/24 02:37:15;;;;;;;3.40;2.30;;;;;;;;;;5038902;27;93239;-76
2022/06/24 02:39:41;;;;;;;2.55;2.17;;;;;;;;;;5038298;27;93012;-75
2022/06/24 02:42:08;;;;;;;2.63;2.38;;;;;;;;;;5032597;27;93404;-73
2022/06/24 02:44:34;;;;;;;2.17;1.92;;;;;;;;;;5034059;27;92449;-75
2022/06/24 02:47:00;;;;;;;3.30;2.42;;;;;;;;;;5034116;27;93884;-75
2022/06/24 02:49:27;;;;;;;3.97;2.33;;;;;;;;;;5044247;27;94512;-75
2022/06/24 02:51:53;;;;;;;6.50;2.70;;;;;;;;;;5037119;27;92451;-75
2022/06/24 02:54:19;;;;;;;2.58;2.38;;;;;;;;;;5034069;27;94857;-73
2022/06/24 02:56:46;;;;;;;3.35;2.40;;;;;;;;;;5042784;27;93331;-75
2022/06/24 02:59:12;;;;;;;2.88;2.33;;;;;;;;;;5054208;27;92482;-74
2022/06/24 03:01:39;;;;;;;3.63;2.83;;;;;;;;;;5043161;27;94581;-77
2022/06/24 03:04:05;;;;;;;5.45;2.92;;;;;;;;;;5043554;27;92783;-74
2022/06/24 03:06:31;;;;;;;4.85;2.80;;;;;;;;;;5036931;27;93875;-76
2022/06/24 03:08:58;;;;;;;6.50;3.15;;;;;;;;;;5051534;27;94009;-73
2022/06/24 03:11:24;;;;;;;4.70;3.13;;;;;;;;;;5040760;27;91894;-73
2022/06/24 03:13:50;;;;;;;3.97;3.53;;;;;;;;;;5040899;27;93137;-75
2022/06/24 03:16:17;;;;;;;10.93;4.90;;;;;;;;;;5032597;27;94435;-74
2022/06/24 03:18:43;;;;;;;15.48;5.18;;;;;;;;;;5030835;27;94860;-82
2022/06/24 03:21:10;;;;;;;12.50;5.35;;;;;;;;;;5045268;27;96328;-83
2022/06/24 03:23:36;;;;;;;9.80;7.53;;;;;;;;;;5033958;27;92524;-78
2022/06/24 03:26:02;;;;;;;6.22;4.47;;;;;;;;;;5032187;27;93890;-77
2022/06/24 03:28:29;;;;;;;11.02;6.10;;;;;;;;;;5032619;27;94187;-75
2022/06/24 03:30:55;;;;;;;10.48;3.95;;;;;;;;;;5036980;27;93263;-76
2022/06/24 03:33:21;;;;;;;5.07;3.97;;;;;;;;;;5043760;27;93868;-75
2022/06/24 03:35:48;;;;;;;8.18;5.32;;;;;;;;;;5032372;27;92876;-76
2022/06/24 03:38:14;;;;;;;4.10;3.58;;;;;;;;;;5039044;27;92586;-80
2022/06/24 03:40:40;;;;;;;6.43;3.80;;;;;;;;;;5031857;27;93099;-75
2022/06/24 03:43:07;;;;;;;11.68;4.00;;;;;;;;;;5035287;27;95862;-76
2022/06/24 03:45:33;;;;;;;3.58;3.28;;;;;;;;;;5042916;27;96329;-75
2022/06/24 03:48:00;;;;;;;5.60;3.30;;;;;;;;;;5043975;27;93150;-74
2022/06/24 03:50:26;;;;;;;3.83;3.40;;;;;;;;;;5052729;27;92571;-76
2022/06/24 03:52:52;;;;;;;6.18;3.97;;;;;;;;;;5042840;27;93885;-77
2022/06/24 03:55:19;;;;;;;6.22;4.85;;;;;;;;;;5035218;27;93412;-77
2022/06/24 03:57:45;;;;;;;9.93;4.47;;;;;;;;;;5035166;27;92585;-76
2022/06/24 04:00:12;;;;;;;6.20;3.47;;;;;;;;;;5042748;27;93124;-75
2022/06/24 04:02:38;;;;;;;4.70;3.88;;;;;;;;;;5052759;27;94592;-75
2022/06/24 04:05:11;;;;;;;7.95;3.85;;;;;;;;;;5044517;27;92444;-75
2022/06/24 04:07:38;;;;;;;7.15;4.35;;;;;;;;;;5049733;27;96430;-76
2022/06/24 04:10:04;;;;;;;3.75;3.38;;;;;;;;;;5047419;27;92491;-76
2022/06/24 04:12:31;;;;;;;6.82;3.67;;;;;;;;;;5047002;27;92903;-75
2022/06/24 04:15:13;;;;;;;4.20;3.80;;;;;;;;;;5036938;27;93961;-74
2022/06/24 04:17:39;;;;;;;6.57;4.03;;;;;;;;;;5046444;27;92613;-75
2022/06/24 04:20:06;;;;;;;6.07;3.83;;;;;;;;;;5037512;27;92447;-74
2022/06/24 04:22:32;;;;;;;8.10;3.38;;;;;;;;;;5039361;27;93404;-75
2022/06/24 04:24:59;;;;;;;3.85;2.97;;;;;;;;;;5035711;27;91792;-75
2022/06/24 04:27:25;;;;;;;3.20;3.00;;;;;;;;;;5044962;27;92615;-75
2022/06/24 04:29:52;;;;;;;3.45;2.60;;;;;;;;;;5034171;27;93267;-75
2022/06/24 04:32:18;;;;;;;3.17;2.92;;;;;;;;;;5033618;27;94875;-74
2022/06/24 04:34:44;;;;;;;6.82;3.58;;;;;;;;;;5039813;27;94235;-75
2022/06/24 04:37:11;;;;;;;4.63;3.30;;;;;;;;;;5034169;27;94855;-78
2022/06/24 04:39:37;;;;;;;3.25;2.95;;;;;;;;;;5049580;27;93987;-75
2022/06/24 04:42:04;;;;;;;3.35;2.88;;;;;;;;;;5053230;27;94190;-74
2022/06/24 04:44:30;;;;;;;5.75;2.85;;;;;;;;;;5046982;27;92530;-74
2022/06/24 04:46:57;;;;;;;4.38;2.85;;;;;;;;;;5040190;27;93942;-74
2022/06/24 04:49:23;;;;;;;3.78;3.40;;;;;;;;;;5035028;27;91699;-74
2022/06/24 04:51:49;;;;;;;5.32;3.47;;;;;;;;;;5034902;27;93190;-74
2022/06/24 04:54:16;;;;;;;7.28;3.08;;;;;;;;;;5040721;27;93339;-74
2022/06/24 04:56:42;;;;;;;3.03;2.70;;;;;;;;;;5032538;27;94846;-74
2022/06/24 04:59:08;;;;;;;3.65;2.95;;;;;;;;;;5035747;27;96286;-74
2022/06/24 05:01:35;;;;;;;3.55;3.35;;;;;;;;;;5049626;27;94097;-74
2022/06/24 05:04:01;;;;;;;4.22;3.08;;;;;;;;;;5033882;27;92812;-74
2022/06/24 05:06:28;;;;;;;6.25;3.13;;;;;;;;;;5043534;27;93947;-73
2022/06/24 05:08:54;;;;;;;7.00;3.70;;;;;;;;;;5037502;27;94216;-75
2022/06/24 05:11:21;;;;;;;4.45;3.60;;;;;;;;;;5035980;27;93971;-74
2022/06/24 05:13:47;;;;;;;5.10;3.92;;;;;;;;;;5048824;27;93772;-74
2022/06/24 05:16:13;;;;;;;5.90;3.50;;;;;;;;;;5034763;27;92893;-74
2022/06/24 05:19:00;;;;;;;4.15;3.85;;;;;;;;;;5034874;27;93759;-75
2022/06/24 05:21:26;;;;;;;4.40;3.97;;;;;;;;;;5042700;27;96641;-72
2022/06/24 05:23:52;;;;;;;7.38;4.05;;;;;;;;;;5053536;27;93017;-73
2022/06/24 05:26:19;;;;;;;5.50;4.30;;;;;;;;;;5052536;27;92557;-73
2022/06/24 05:28:46;;;;;;;7.80;4.88;;;;;;;;;;5046595;27;93490;-73
2022/06/24 05:31:12;;;;;;;6.95;4.43;;;;;;;;;;5056649;27;92484;-73
2022/06/24 05:33:39;;;;;;;6.72;4.47;;;;;;;;;;5034285;27;94066;-73
2022/06/24 05:36:05;;;;;;;4.50;4.18;;;;;;;;;;5048317;27;93210;-73
2022/06/24 05:38:32;;;;;;;11.13;5.50;;;;;;;;;;5035255;27;92777;-73
2022/06/24 05:40:58;;;;;;;5.20;4.80;;;;;;;;;;5032400;27;93307;-73
2022/06/24 05:43:24;;;;;;;6.32;5.82;;;;;;;;;;5041633;27;92598;-73
2022/06/24 05:45:51;;;;;;;6.82;5.55;;;;;;;;;;5032029;27;94972;-74
2022/06/24 05:48:17;;;;;;;5.65;5.15;;;;;;;;;;5034086;27;94044;-74
2022/06/24 05:50:44;;;;;;;6.00;5.47;;;;;;;;;;5033528;27;92532;-73
2022/06/24 05:56:02;;;;;;;5.68;5.20;;;;;;;;;;5034304;27;92874;-74
2022/06/24 05:58:28;;;;;;;6.47;4.95;;;;;;;;;;5032703;27;93570;-73
2022/06/24 06:00:55;;;;;;;5.45;4.78;;;;;;;;;;5040932;27;93852;-74
2022/06/24 06:03:22;;;;;;;9.23;6.20;;;;;;;;;;5050116;27;91747;-73
2022/06/24 06:05:48;;;;;;;6.03;5.50;;;;;;;;;;5040447;27;92566;-73
2022/06/24 06:08:15;;;;;;;7.28;6.55;;;;;;;;;;5042012;27;94116;-73
2022/06/24 06:10:46;;;;;;;7.65;6.63;;;;;;;;;;5031669;27;94879;-73
2022/06/24 06:13:12;;;;;;;9.40;6.80;;;;;;;;;;5034402;27;96257;-73
2022/06/24 06:15:40;;;;;;;9.98;7.60;;;;;;;;;;5040920;27;93516;-72
2022/06/24 06:18:06;;;;;;;9.32;6.35;;;;;;;;;;5035696;27;94779;-73
2022/06/24 06:20:33;;;;;;;7.60;6.90;;;;;;;;;;5033378;27;93350;-72
2022/06/24 06:22:59;;;;;;;9.35;5.72;;;;;;;;;;5027717;27;93310;-71
2022/06/24 06:25:25;;;;;;;7.97;6.15;;;;;;;;;;5026966;27;94958;-71
2022/06/24 06:27:52;;;;;;;7.38;6.68;;;;;;;;;;5034951;27;95710;-71
2022/06/24 06:30:18;;;;;;;13.73;7.03;;;;;;;;;;5041043;27;92683;-71
2022/06/24 06:32:44;;;;;;;16.05;7.88;;;;;;;;;;5052555;27;93950;-71
2022/06/24 06:35:11;;;;;;;9.70;7.97;;;;;;;;;;5038204;27;95781;-71
2022/06/24 06:37:37;;;;;;;8.30;7.60;;;;;;;;;;5038370;27;93937;-71
2022/06/24 06:40:04;;;;;;;10.55;7.85;;;;;;;;;;5049256;27;93961;-71
2022/06/24 06:42:30;;;;;;;11.10;7.90;;;;;;;;;;5041537;27;92703;-71
2022/06/24 06:44:57;;;;;;;15.23;8.10;;;;;;;;;;5039101;27;92959;-71
2022/06/24 06:47:24;;;;;;;8.82;8.00;;;;;;;;;;5029220;27;94167;-71
2022/06/24 06:49:50;;;;;;;11.30;8.48;;;;;;;;;;5033379;27;94245;-71
2022/06/24 06:52:16;;;;;;;5.85;5.32;;;;;;;;;;5048679;27;94194;-74
2022/06/24 06:54:43;;;;;;;4.65;4.35;;;;;;;;;;5032364;27;94192;-74
2022/06/24 06:57:09;;;;;;;4.35;4.05;;;;;;;;;;5038807;27;93423;-74
2022/06/24 06:59:35;;;;;;;5.10;4.60;;;;;;;;;;5031316;27;96497;-74
2022/06/24 07:02:02;;;;;;;5.97;5.35;;;;;;;;;;5034133;27;94302;-75
2022/06/24 07:04:28;;;;;;;9.32;6.80;;;;;;;;;;5029573;27;93913;-75
2022/06/24 07:06:55;;;;;;;5.80;5.20;;;;;;;;;;5027688;27;94836;-74
2022/06/24 07:09:21;;;;;;;5.95;5.13;;;;;;;;;;5030573;27;93319;-75
2022/06/24 07:11:47;;;;;;;5.78;5.22;;;;;;;;;;5030498;27;93892;-75
2022/06/24 07:14:14;;;;;;;5.78;5.18;;;;;;;;;;5032404;27;93555;-75
2022/06/24 07:16:40;;;;;;;5.10;4.80;;;;;;;;;;5041559;27;92269;-74
2022/06/24 07:19:07;;;;;;;7.05;5.10;;;;;;;;;;5044247;27;93349;-75
2022/06/24 07:21:33;;;;;;;6.00;5.45;;;;;;;;;;5036768;27;92483;-75
2022/06/24 07:24:00;;;;;;;6.70;5.50;;;;;;;;;;5041314;27;96441;-76
2022/06/24 07:26:26;;;;;;;6.53;4.70;;;;;;;;;;5032864;27;94369;-76
2022/06/24 07:28:52;;;;;;;6.40;5.80;;;;;;;;;;5034933;27;92653;-75
2022/06/24 07:31:19;;;;;;;6.10;5.53;;;;;;;;;;5033871;27;94543;-75
2022/06/24 07:33:46;;;;;;;6.55;4.57;;;;;;;;;;5036039;27;94178;-75
2022/06/24 07:36:14;;;;;;;5.40;4.90;;;;;;;;;;5037671;27;94068;-75
2022/06/24 07:38:42;;;;;;;5.22;4.82;;;;;;;;;;5028966;27;93931;-75
2022/06/24 07:41:09;;;;;;;6.13;5.25;;;;;;;;;;5043349;27;93615;-75
2022/06/24 07:43:37;;;;;;;8.27;5.97;;;;;;;;;;5038286;27;94666;-75
2022/06/24 07:46:05;;;;;;;8.18;5.68;;;;;;;;;;5032181;27;94376;-76
2022/06/24 07:48:32;;;;;;;6.88;5.53;;;;;;;;;;5033910;27;95757;-76
2022/06/24 07:51:12;;;;;;;5.45;5.05;;;;;;;;;;5036304;27;96610;-75
2022/06/24 07:53:40;;;;;;;8.10;6.15;;;;;;;;;;5032706;27;94930;-76
2022/06/24 07:58:55;;;;;;;9.35;6.95;;;;;;;;;;5033536;27;93910;-76
2022/06/24 08:01:22;;;;;;;8.55;7.78;;;;;;;;;;5032470;27;94415;-74
2022/06/24 08:03:48;;;;;;;8.15;7.18;;;;;;;;;;5037066;27;94683;-76
2022/06/24 08:06:15;;;;;;;7.35;6.65;;;;;;;;;;5036345;27;93993;-76
2022/06/24 08:08:42;;;;;;;8.80;8.05;;;;;;;;;;5035854;27;93236;-76
2022/06/24 08:11:08;;;;;;;10.65;8.65;;;;;;;;;;5032405;27;94225;-76
2022/06/24 08:13:35;;;;;;;9.77;8.38;;;;;;;;;;5032557;27;96482;-76
2022/06/24 08:16:01;;;;;;;16.67;7.95;;;;;;;;;;5035843;27;92886;-76
2022/06/24 08:18:28;;;;;;;9.73;7.03;;;;;;;;;;5031398;27;95673;-75
2022/06/24 08:20:54;;;;;;;8.90;8.13;;;;;;;;;;5031575;27;94081;-75
2022/06/24 08:23:21;;;;;;;10.40;6.55;;;;;;;;;;5033616;27;92582;-76
2022/06/24 08:25:47;;;;;;;6.90;6.28;;;;;;;;;;5039251;27;93910;-76
2022/06/24 08:28:14;;;;;;;8.70;5.30;;;;;;;;;;5030385;27;93874;-76
2022/06/24 08:30:47;;;;;;;7.57;6.55;;;;;;;;;;5035360;27;95501;-75
2022/06/24 08:33:13;;;;;;;6.95;6.35;;;;;;;;;;5030969;27;94238;-76
2022/06/24 08:35:39;;;;;;;10.00;6.72;;;;;;;;;;5032061;27;93698;-76
2022/06/24 08:38:06;;;;;;;8.50;6.47;;;;;;;;;;5037282;27;96054;-75
2022/06/24 08:40:32;;;;;;;7.45;6.75;;;;;;;;;;5035019;27;94109;-76
2022/06/24 08:43:00;;;;;;;8.32;7.50;;;;;;;;;;5037187;27;93102;-74
2022/06/24 08:45:26;;;;;;;10.75;7.85;;;;;;;;;;5043159;27;94007;-74
2022/06/24 08:47:53;;;;;;;10.65;9.30;;;;;;;;;;5037987;27;93902;-75
2022/06/24 08:50:20;;;;;;;11.45;9.00;;;;;;;;;;5035285;27;94640;-77
2022/06/24 08:52:51;;;;;;;9.90;8.80;;;;;;;;;;5041213;27;94101;-75
2022/06/24 08:55:22;;;;;;;9.23;8.32;;;;;;;;;;5043351;27;91790;-74
2022/06/24 08:57:48;;;;;;;10.77;9.85;;;;;;;;;;5035916;27;92814;-75
2022/06/24 09:00:15;;;;;;;9.75;8.75;;;;;;;;;;5044099;27;94079;-74
2022/06/24 09:02:42;;;;;;;11.38;8.90;;;;;;;;;;5032263;27;95362;-76
2022/06/24 09:05:12;;;;;;;11.65;10.45;;;;;;;;;;5034890;27;96644;-75
2022/06/24 09:07:38;;;;;;;12.07;11.07;;;;;;;;;;5039953;27;93967;-74
2022/06/24 09:10:06;;;;;;;12.50;11.32;;;;;;;;;;5033370;27;94259;-75
2022/06/24 09:12:37;;;;;;;12.65;11.38;;;;;;;;;;5033629;27;94185;-75
2022/06/24 09:15:04;;;;;;;14.45;12.40;;;;;;;;;;5043694;27;92591;-75
2022/06/24 09:17:33;;;;;;;13.32;12.10;;;;;;;;;;5051469;27;94064;-75
2022/06/24 09:20:03;;;;;;;15.25;13.55;;;;;;;;;;5035087;27;93294;-75
2022/06/24 09:22:50;;;;;;;15.68;14.32;;;;;;;;;;5033150;27;94575;-76
2022/06/24 09:25:17;;;;;;;14.00;12.90;;;;;;;;;;5034126;27;95093;-76
2022/06/24 09:27:47;;;;;;;15.05;13.57;;;;;;;;;;5029403;27;96586;-74
2022/06/24 09:30:16;;;;;;;14.30;12.95;;;;;;;;;;5042477;27;92978;-75
2022/06/24 09:32:50;;;;;;;14.77;13.20;;;;;;;;;;5034559;27;94679;-75
2022/06/24 09:35:36;;;;;;;16.10;14.68;;;;;;;;;;5030408;27;93086;-79
2022/06/24 09:38:03;;;;;;;16.35;14.52;;;;;;;;;;5031682;27;93984;-74
2022/06/24 09:40:30;;;;;;;14.40;12.88;;;;;;;;;;5034406;27;95701;-73
2022/06/24 09:43:01;;;;;;;14.40;12.98;;;;;;;;;;5030269;27;94502;-73
2022/06/24 09:45:46;;;;;;;13.75;12.50;;;;;;;;;;5033129;27;94061;-73
2022/06/24 09:48:28;;;;;;;13.15;11.95;;;;;;;;;;5029335;27;95024;-73
2022/06/24 09:51:00;;;;;;;13.98;11.38;;;;;;;;;;5038725;27;94082;-75
2022/06/24 09:53:27;;;;;;;9.55;8.65;;;;;;;;;;5037784;27;94898;-73
2022/06/24 09:55:54;;;;;;;9.23;7.30;;;;;;;;;;5041496;27;92461;-74
2022/06/24 09:58:21;;;;;;;5.90;5.45;;;;;;;;;;5036271;27;93064;-75
2022/06/24 10:00:48;;;;;;;5.85;5.20;;;;;;;;;;5034562;27;94242;-73
2022/06/24 10:03:15;;;;;;;6.45;4.72;;;;;;;;;;5041390;27;93718;-73
2022/06/24 10:05:44;;;;;;;4.40;4.03;;;;;;;;;;5033959;27;92500;-73
2022/06/24 10:08:11;;;;;;;4.28;3.90;;;;;;;;;;5033793;27;94693;-73
2022/06/24 10:10:45;;;;;;;6.10;4.00;;;;;;;;;;5042617;27;91726;-74
2022/06/24 10:13:17;;;;;;;3.78;3.50;;;;;;;;;;5033894;27;93858;-73
2022/06/24 10:15:44;;;;;;;5.63;3.60;;;;;;;;;;5035130;27;93226;-72
2022/06/24 10:18:11;;;;;;;3.63;3.33;;;;;;;;;;5037392;27;94842;-72
2022/06/24 10:20:42;;;;;;;3.40;3.17;;;;;;;;;;5043552;27;92408;-73
2022/06/24 10:23:08;;;;;;;3.85;3.50;;;;;;;;;;5041073;27;92689;-74
2022/06/24 10:25:47;;;;;;;4.65;3.45;;;;;;;;;;5036689;27;93875;-73
2022/06/24 10:28:13;;;;;;;4.13;3.47;;;;;;;;;;5035290;27;94296;-73
2022/06/24 10:30:40;;;;;;;4.05;3.75;;;;;;;;;;5033622;27;93543;-73
2022/06/24 10:33:11;;;;;;;3.67;3.40;;;;;;;;;;5032085;27;92893;-73
2022/06/24 10:35:53;;;;;;;4.47;4.07;;;;;;;;;;5033554;27;93605;-73
2022/06/24 10:38:20;;;;;;;7.63;5.63;;;;;;;;;;5048366;27;92799;-73
2022/06/24 10:40:47;;;;;;;5.20;4.70;;;;;;;;;;5037280;27;94183;-73
2022/06/24 10:43:14;;;;;;;4.50;4.20;;;;;;;;;;5031925;27;94915;-73
2022/06/24 10:45:40;;;;;;;5.53;5.00;;;;;;;;;;5046489;27;95407;-73
2022/06/24 10:48:06;;;;;;;8.90;7.90;;;;;;;;;;5034852;27;94154;-73
2022/06/24 10:50:33;;;;;;;6.90;6.22;;;;;;;;;;5033171;27;92479;-73
2022/06/24 10:53:01;;;;;;;5.65;5.15;;;;;;;;;;5033805;27;93038;-74
2022/06/24 10:55:29;;;;;;;5.18;4.78;;;;;;;;;;5046958;27;93414;-73
2022/06/24 10:58:00;;;;;;;9.13;6.00;;;;;;;;;;5044075;27;92781;-74
2022/06/24 11:00:28;;;;;;;6.43;4.93;;;;;;;;;;5042430;27;93873;-73
2022/06/24 11:02:57;;;;;;;6.45;5.18;;;;;;;;;;5039060;27;94834;-73
2022/06/24 11:05:25;;;;;;;7.10;4.75;;;;;;;;;;5044292;27;93103;-73
2022/06/24 11:07:52;;;;;;;6.47;5.25;;;;;;;;;;5037249;27;95854;-72
2022/06/24 11:10:20;;;;;;;5.20;4.80;;;;;;;;;;5036937;27;94383;-72
2022/06/24 11:13:04;;;;;;;6.93;4.60;;;;;;;;;;5036624;27;95591;-72
2022/06/24 11:15:41;;;;;;;6.05;5.20;;;;;;;;;;5039064;27;94345;-72
2022/06/24 11:18:08;;;;;;;6.00;5.30;;;;;;;;;;5041049;27;92762;-72
2022/06/24 11:20:36;;;;;;;5.97;5.47;;;;;;;;;;5045190;27;93248;-72
2022/06/24 11:23:06;;;;;;;6.40;5.75;;;;;;;;;;5038864;27;94092;-72
2022/06/24 11:25:33;;;;;;;6.20;4.85;;;;;;;;;;5042379;27;93065;-73
2022/06/24 11:27:59;;;;;;;6.85;4.88;;;;;;;;;;5042385;27;94601;-73
2022/06/24 11:30:26;;;;;;;14.45;8.18;;;;;;;;;;5039563;27;92543;-73
2022/06/24 11:32:53;;;;;;;6.40;5.60;;;;;;;;;;5038496;27;96339;-73
2022/06/24 11:35:20;;;;;;;12.98;8.13;;;;;;;;;;5037971;27;94893;-73
2022/06/24 11:37:47;;;;;;;6.55;5.90;;;;;;;;;;5041874;27;94339;-73
2022/06/24 11:40:20;;;;;;;8.20;6.07;;;;;;;;;;5037225;27;93956;-73
2022/06/24 11:42:47;;;;;;;6.70;6.00;;;;;;;;;;5036123;27;94374;-72
2022/06/24 11:45:13;;;;;;;6.47;5.85;;;;;;;;;;5036510;27;94136;-72
2022/06/24 11:47:40;;;;;;;10.77;7.53;;;;;;;;;;5041655;27;94759;-72
2022/06/24 11:50:16;;;;;;;8.27;7.53;;;;;;;;;;5039061;27;91844;-73
2022/06/24 11:52:46;;;;;;;9.00;8.13;;;;;;;;;;5031777;27;94491;-72
2022/06/24 11:55:26;;;;;;;12.07;9.32;;;;;;;;;;5035999;27;94505;-75
2022/06/24 11:57:56;;;;;;;14.40;10.23;;;;;;;;;;5035011;27;95063;-74
2022/06/24 12:00:24;;;;;;;11.25;10.30;;;;;;;;;;5035665;27;97527;-74
2022/06/24 12:02:51;;;;;;;11.95;10.75;;;;;;;;;;5037979;27;94228;-73
2022/06/24 12:05:19;;;;;;;15.35;11.23;;;;;;;;;;5041489;27;92448;-73
2022/06/24 12:07:46;;;;;;;13.02;10.75;;;;;;;;;;5035714;27;93418;-73
2022/06/24 12:10:13;;;;;;;13.00;11.50;;;;;;;;;;5035012;27;92410;-73
2022/06/24 12:12:55;;;;;;;13.82;12.30;;;;;;;;;;5045215;27;92558;-74
2022/06/24 12:15:26;;;;;;;17.50;13.07;;;;;;;;;;5037441;27;93202;-73
2022/06/24 12:17:53;;;;;;;16.30;14.10;;;;;;;;;;5039752;27;92499;-73
2022/06/24 12:20:27;;;;;;;15.57;13.80;;;;;;;;;;5038955;27;93964;-73
2022/06/24 12:23:12;;;;;;;17.52;14.95;;;;;;;;;;5033780;27;96668;-73
2022/06/24 12:25:39;;;;;;;19.35;15.85;;;;;;;;;;5033915;27;92590;-73
2022/06/24 12:28:12;;;;;;;17.90;16.00;;;;;;;;;;5044287;27;94432;-72
2022/06/24 12:30:38;;;;;;;17.35;15.20;;;;;;;;;;5033690;27;92582;-72
2022/06/24 12:33:10;;;;;;;19.42;15.35;;;;;;;;;;5034190;27;93967;-72
2022/06/24 12:35:43;;;;;;;16.47;15.00;;;;;;;;;;5033535;27;93891;-73
2022/06/24 12:38:17;;;;;;;15.90;14.23;;;;;;;;;;5034765;27;93837;-72
2022/06/24 12:40:44;;;;;;;22.92;16.55;;;;;;;;;;5033582;27;94521;-72
2022/06/24 12:43:11;;;;;;;18.98;16.55;;;;;;;;;;5049632;27;94217;-72
2022/06/24 12:45:39;;;;;;;15.82;14.23;;;;;;;;;;5045375;27;92462;-72
2022/06/24 12:51:00;;;;;;;17.13;15.55;;;;;;;;;;5038211;27;94043;-72
2022/06/24 12:53:27;;;;;;;15.77;14.13;;;;;;;;;;5034002;27;93840;-73
2022/06/24 12:55:54;;;;;;;18.30;14.88;;;;;;;;;;5033413;27;94451;-73
2022/06/24 12:58:20;;;;;;;15.65;14.25;;;;;;;;;;5034446;27;93742;-73
2022/06/24 13:00:46;;;;;;;23.25;16.40;;;;;;;;;;5033305;27;93927;-73
2022/06/24 13:03:16;;;;;;;16.75;15.10;;;;;;;;;;5052761;27;93428;-73
2022/06/24 13:05:42;;;;;;;11.73;10.55;;;;;;;;;;5041074;27;93708;-73
2022/06/24 13:08:08;;;;;;;14.70;11.43;;;;;;;;;;5038630;27;93717;-75
2022/06/24 13:10:35;;;;;;;12.98;11.85;;;;;;;;;;5038825;27;94112;-75
2022/06/24 13:13:05;;;;;;;17.70;11.75;;;;;;;;;;5031862;27;96546;-74
2022/06/24 13:15:31;;;;;;;13.05;11.85;;;;;;;;;;5032893;27;92523;-74
2022/06/24 13:17:58;;;;;;;12.85;11.45;;;;;;;;;;5033956;27;93414;-74
2022/06/24 13:20:25;;;;;;;13.15;11.85;;;;;;;;;;5053706;27;94453;-74
2022/06/24 13:22:51;;;;;;;12.45;11.02;;;;;;;;;;5034922;27;93766;-74
2022/06/24 13:25:17;;;;;;;15.02;12.23;;;;;;;;;;5033587;27;92482;-74
2022/06/24 13:27:44;;;;;;;16.85;12.07;;;;;;;;;;5033169;27;94084;-73
2022/06/24 13:30:11;;;;;;;14.65;13.18;;;;;;;;;;5040890;27;93396;-73
2022/06/24 13:32:38;;;;;;;14.77;12.60;;;;;;;;;;5044675;27;93092;-74
2022/06/24 13:35:04;;;;;;;14.65;12.48;;;;;;;;;;5036046;27;94149;-77
2022/06/24 13:37:31;;;;;;;14.80;13.13;;;;;;;;;;5031271;27;95347;-75
2022/06/24 13:39:58;;;;;;;13.73;11.98;;;;;;;;;;5033824;27;96594;-75
2022/06/24 13:42:24;;;;;;;14.90;12.70;;;;;;;;;;5043657;27;94371;-75
2022/06/24 13:44:52;;;;;;;18.27;12.52;;;;;;;;;;5031599;27;92472;-75
2022/06/24 13:47:18;;;;;;;12.93;11.63;;;;;;;;;;5033544;27;93820;-74
2022/06/24 13:49:44;;;;;;;12.65;11.43;;;;;;;;;;5033420;27;93093;-74
2022/06/24 13:52:11;;;;;;;12.43;11.18;;;;;;;;;;5033511;27;93154;-75
2022/06/24 13:54:37;;;;;;;20.58;11.73;;;;;;;;;;5048004;27;93987;-73
2022/06/24 13:57:04;;;;;;;13.32;10.75;;;;;;;;;;5049097;27;92872;-73
2022/06/24 13:59:31;;;;;;;10.88;9.80;;;;;;;;;;5030898;27;94251;-73
2022/06/24 14:01:57;;;;;;;10.00;9.00;;;;;;;;;;5030575;27;96866;-73
2022/06/24 14:04:44;;;;;;;12.65;10.77;;;;;;;;;;5032078;27;92540;-74
2022/06/24 14:07:11;;;;;;;12.40;8.93;;;;;;;;;;5039778;27;92885;-73
2022/06/24 14:09:38;;;;;;;11.30;8.13;;;;;;;;;;5033151;27;94126;-74
2022/06/24 14:12:05;;;;;;;9.52;8.57;;;;;;;;;;5031772;27;92681;-74
2022/06/24 14:14:31;;;;;;;11.13;9.98;;;;;;;;;;5035298;27;93986;-74
2022/06/24 14:16:58;;;;;;;11.60;9.82;;;;;;;;;;5035424;27;93898;-74
2022/06/24 14:19:44;;;;;;;15.00;10.32;;;;;;;;;;5032997;27;93779;-74
2022/06/24 14:22:10;;;;;;;12.88;11.15;;;;;;;;;;5037416;27;94245;-74
2022/06/24 14:24:37;;;;;;;10.65;9.55;;;;;;;;;;5038884;27;94353;-74
2022/06/24 14:27:07;;;;;;;13.35;12.02;;;;;;;;;;5031618;27;97264;-75
2022/06/24 14:29:34;;;;;;;13.07;11.68;;;;;;;;;;5033067;27;93430;-74
2022/06/24 14:32:01;;;;;;;12.35;11.05;;;;;;;;;;5037657;27;92968;-75
2022/06/24 14:34:27;;;;;;;12.57;11.38;;;;;;;;;;5044842;27;93839;-75
2022/06/24 14:36:57;;;;;;;12.43;10.32;;;;;;;;;;5038195;27;94308;-75
2022/06/24 14:42:08;;;;;;;12.60;8.48;;;;;;;;;;5035324;27;95110;-74
2022/06/24 14:44:35;;;;;;;9.23;7.32;;;;;;;;;;5033417;27;92519;-74
2022/06/24 14:47:05;;;;;;;7.75;6.95;;;;;;;;;;5043210;27;92573;-74
2022/06/24 14:49:32;;;;;;;8.50;6.45;;;;;;;;;;5037119;27;95677;-73
2022/06/24 14:51:59;;;;;;;11.40;7.10;;;;;;;;;;5031451;27;95741;-74
2022/06/24 14:54:25;;;;;;;6.97;6.00;;;;;;;;;;5030563;27;96187;-74